Monroe, Nebraska
Current Conditions -  °F | °C
As of 7:35 AM on Friday 28 Nov 2014 (Local Time) from KOLU Reporting Station
Clear Clear  
Wind Chill: 25°   Ceiling: Unl
Heat Index: 25°   Visibility: 10mi
Dew Point: 16°   Wind: 3mph
Humidity: 69%   Direction: 200°SSW
Pressure: 29.85"   Gusts: NA
Location:  41.47°N, 97.6°W
Report Text: KOLU 281335Z AUTO 20003KT 10SM CLR M04/M09 A2985 RMK AO1
Loading
Personal Weather Stations






























Interactive Weather Map New forecast layout! Learn more

10-Day Weather Forecast

Advertisements
Track Severe Weather on mobile